Time;durP1;ratioP1;P1;durP2;ratioP2;P2;SDS_P1;SDS_P2;PMS_P1;PMS_P2;Temp;Humidity;BMP_temperature;BMP_pressure;BME280_temperature;BME280_humidity;BME280_pressure;Samples;Min_cycle;Max_cycle;Signal;HPM_P1;HPM_P2
2024/01/15 00:02:00;;;;;;;70.50;32.50;;;;;;;-8.56;68.26;100311.08;107155;1255;107860;-65
2024/01/15 00:04:29;;;;;;;68.40;30.60;;;;;;;-8.54;68.36;100309.50;107269;1257;106859;-66
2024/01/15 00:06:57;;;;;;;71.00;31.90;;;;;;;-8.55;68.24;100308.28;107322;1257;99176;-64
2024/01/15 00:09:27;;;;;;;63.40;31.50;;;;;;;-8.54;68.24;100303.42;107307;1256;99707;-65
2024/01/15 00:11:55;;;;;;;70.70;30.30;;;;;;;-8.57;68.14;100307.99;107323;1256;112532;-64
2024/01/15 00:14:24;;;;;;;63.10;29.60;;;;;;;-8.58;67.97;100299.99;107301;1257;108002;-65
2024/01/15 00:16:54;;;;;;;64.60;30.70;;;;;;;-8.58;68.22;100296.02;107312;1256;108251;-68
2024/01/15 00:19:23;;;;;;;68.30;30.90;;;;;;;-8.56;68.06;100290.40;107298;1256;99193;-66
2024/01/15 00:21:52;;;;;;;64.10;30.50;;;;;;;-8.54;68.00;100292.09;107340;1259;99721;-65
2024/01/15 00:24:20;;;;;;;65.00;31.60;;;;;;;-8.51;68.31;100286.65;107273;1256;112416;-65
2024/01/15 00:26:49;;;;;;;70.10;31.50;;;;;;;-8.46;68.56;100281.51;107306;1255;109091;-65
2024/01/15 00:29:17;;;;;;;64.20;30.20;;;;;;;-8.38;68.72;100269.02;107291;1259;108982;-64
2024/01/15 00:31:47;;;;;;;74.20;31.20;;;;;;;-8.34;68.74;100268.76;107291;1257;99192;-65
2024/01/15 00:34:16;;;;;;;70.20;33.20;;;;;;;-8.34;68.72;100266.85;107385;1256;99080;-65
2024/01/15 00:36:44;;;;;;;68.20;32.20;;;;;;;-8.35;68.61;100269.81;107328;1256;112872;-66
2024/01/15 00:39:13;;;;;;;66.40;31.80;;;;;;;-8.39;68.49;100263.47;107348;1256;108510;-65
2024/01/15 00:41:42;;;;;;;73.80;33.20;;;;;;;-8.43;68.54;100257.97;107302;1255;108070;-65
2024/01/15 00:44:10;;;;;;;73.70;32.60;;;;;;;-8.44;68.41;100257.98;107263;1256;99093;-65
2024/01/15 00:46:44;;;;;;;76.80;34.90;;;;;;;-8.47;68.24;100258.06;107095;1256;99267;-65
2024/01/15 00:49:13;;;;;;;70.60;31.70;;;;;;;-8.50;68.26;100255.36;107220;1257;112225;-64
2024/01/15 00:51:45;;;;;;;72.50;36.30;;;;;;;-8.53;68.20;100260.79;107126;1256;108184;-65
2024/01/15 00:54:13;;;;;;;73.20;34.90;;;;;;;-8.56;68.00;100260.50;107304;1257;107874;-65
2024/01/15 00:56:42;;;;;;;73.70;33.90;;;;;;;-8.62;68.08;100262.52;107287;1257;99317;-65
2024/01/15 00:59:10;;;;;;;72.90;34.30;;;;;;;-8.67;68.14;100258.09;107318;1257;99291;-65
2024/01/15 01:01:42;;;;;;;71.10;33.50;;;;;;;-8.69;68.03;100255.34;107318;1257;113569;-65
2024/01/15 01:04:11;;;;;;;66.50;32.00;;;;;;;-8.70;68.20;100260.23;107315;1257;108803;-64
2024/01/15 01:06:40;;;;;;;77.70;35.90;;;;;;;-8.71;68.19;100258.84;107312;1257;106802;-66
2024/01/15 01:09:08;;;;;;;65.00;29.20;;;;;;;-8.69;68.37;100260.73;107266;1255;99200;-65
2024/01/15 01:11:37;;;;;;;61.10;28.40;;;;;;;-8.73;67.88;100257.13;107104;1256;99110;-65
2024/01/15 01:14:06;;;;;;;66.90;30.20;;;;;;;-8.79;67.91;100252.23;107265;1257;112671;-66
2024/01/15 01:16:38;;;;;;;71.50;32.30;;;;;;;-8.82;68.06;100249.64;107331;1257;107294;-66
2024/01/15 01:19:07;;;;;;;65.40;30.50;;;;;;;-8.83;68.09;100246.89;107328;1257;107951;-64
2024/01/15 01:21:36;;;;;;;76.40;32.30;;;;;;;-8.84;68.16;100245.34;107030;1257;99269;-65
2024/01/15 01:24:05;;;;;;;75.10;33.00;;;;;;;-8.81;68.36;100253.45;107333;1257;99093;-65
2024/01/15 01:26:33;;;;;;;75.90;34.70;;;;;;;-8.79;68.23;100250.64;107266;1257;113124;-66
2024/01/15 01:29:02;;;;;;;68.20;33.80;;;;;;;-8.78;68.42;100249.41;107323;1257;108169;-66
2024/01/15 01:31:30;;;;;;;72.20;34.50;;;;;;;-8.84;68.44;100248.12;107277;1257;107910;-65
2024/01/15 01:33:59;;;;;;;79.30;38.00;;;;;;;-8.86;68.15;100248.49;107297;1256;99199;-65
2024/01/15 01:36:27;;;;;;;81.20;36.10;;;;;;;-8.84;68.20;100246.73;107088;1256;99194;-66
2024/01/15 01:38:56;;;;;;;74.50;36.10;;;;;;;-8.83;68.22;100244.96;107298;1259;112806;-65
2024/01/15 01:41:24;;;;;;;73.60;32.60;;;;;;;-8.84;68.11;100238.04;107132;1256;108868;-65
2024/01/15 01:43:52;;;;;;;79.00;34.10;;;;;;;-8.91;67.84;100239.20;107274;1257;107310;-65
2024/01/15 01:46:21;;;;;;;71.50;33.70;;;;;;;-8.92;68.05;100236.63;107234;1257;99094;-66
2024/01/15 01:48:50;;;;;;;76.60;34.20;;;;;;;-8.89;68.38;100236.20;107336;1257;99313;-65
2024/01/15 01:51:21;;;;;;;73.60;33.70;;;;;;;-8.81;68.87;100237.63;107296;1255;112074;-64
2024/01/15 01:53:50;;;;;;;76.60;34.10;;;;;;;-8.73;69.06;100243.59;107273;1257;107546;-65
2024/01/15 01:56:18;;;;;;;68.40;31.40;;;;;;;-8.66;69.14;100246.78;107299;1259;107012;-66
2024/01/15 01:58:48;;;;;;;68.70;31.60;;;;;;;-8.62;68.77;100246.52;107088;1255;99231;-65
2024/01/15 02:01:17;;;;;;;67.40;31.80;;;;;;;-8.61;68.82;100243.02;107103;1256;99189;-65
2024/01/15 02:03:46;;;;;;;66.70;31.00;;;;;;;-8.59;68.66;100244.89;107314;1256;112352;-65
2024/01/15 02:06:14;;;;;;;65.40;30.10;;;;;;;-8.61;68.38;100237.98;107298;1257;106521;-64
2024/01/15 02:08:44;;;;;;;64.00;30.70;;;;;;;-8.63;68.42;100246.88;107292;1257;107376;-65
2024/01/15 02:11:13;;;;;;;63.20;30.90;;;;;;;-8.68;68.31;100245.59;107305;1256;99187;-65
2024/01/15 02:13:42;;;;;;;69.30;31.20;;;;;;;-8.77;67.95;100242.61;107329;1256;99070;-65
2024/01/15 02:16:10;;;;;;;62.50;27.20;;;;;;;-8.83;68.02;100234.89;107239;1257;112825;-65
2024/01/15 02:18:43;;;;;;;54.30;27.20;;;;;;;-8.86;68.14;100232.85;107304;1257;108066;-66
2024/01/15 02:21:12;;;;;;;59.40;27.90;;;;;;;-8.88;68.24;100229.94;107264;1257;106521;-65
2024/01/15 02:23:41;;;;;;;64.90;30.30;;;;;;;-8.90;68.18;100231.55;107143;1256;99465;-65
2024/01/15 02:26:09;;;;;;;56.60;25.90;;;;;;;-8.91;68.12;100231.38;107247;1257;99064;-66
2024/01/15 02:28:38;;;;;;;62.10;28.30;;;;;;;-8.93;68.03;100229.67;107277;1257;112582;-65
2024/01/15 02:31:06;;;;;;;61.10;27.40;;;;;;;-8.97;67.96;100223.14;107290;1257;108327;-66
2024/01/15 02:33:35;;;;;;;59.10;28.90;;;;;;;-9.03;67.92;100215.27;107283;1259;108172;-64
2024/01/15 02:36:04;;;;;;;62.30;29.00;;;;;;;-9.08;68.06;100210.13;107273;1259;99295;-67
2024/01/15 02:38:32;;;;;;;56.30;27.30;;;;;;;-9.12;68.22;100206.89;107315;1257;99755;-65
2024/01/15 02:41:00;;;;;;;56.10;27.60;;;;;;;-9.16;68.00;100205.74;107168;1257;112510;-65
2024/01/15 02:43:29;;;;;;;60.10;27.90;;;;;;;-9.20;67.95;100205.81;107176;1256;107514;-66
2024/01/15 02:45:57;;;;;;;59.20;26.80;;;;;;;-9.21;67.98;100203.73;107216;1257;109849;-65
2024/01/15 02:48:26;;;;;;;62.10;27.80;;;;;;;-9.27;67.86;100204.00;107322;1257;99252;-67
2024/01/15 02:50:54;;;;;;;64.70;28.00;;;;;;;-9.28;67.78;100203.52;107301;1257;99073;-65
2024/01/15 02:53:23;;;;;;;61.20;27.30;;;;;;;-9.33;67.60;100206.52;107280;1257;113006;-66
2024/01/15 02:55:51;;;;;;;68.70;29.80;;;;;;;-9.34;67.66;100200.30;107327;1259;108609;-65
2024/01/15 02:58:19;;;;;;;62.70;29.10;;;;;;;-9.31;67.96;100200.25;107270;1259;107530;-65
2024/01/15 03:00:47;;;;;;;60.00;28.00;;;;;;;-9.28;68.40;100198.46;107283;1256;99177;-65
2024/01/15 03:03:16;;;;;;;64.30;28.10;;;;;;;-9.24;68.37;100204.83;107309;1255;99099;-65
2024/01/15 03:05:45;;;;;;;63.00;27.70;;;;;;;-9.20;68.44;100198.34;107303;1257;113728;-65
2024/01/15 03:08:13;;;;;;;73.40;30.60;;;;;;;-9.19;68.46;100194.14;107263;1259;107695;-65
2024/01/15 03:10:41;;;;;;;63.60;29.40;;;;;;;-9.22;67.97;100187.77;107276;1255;107871;-66
2024/01/15 03:13:09;;;;;;;58.30;27.40;;;;;;;-9.24;68.07;100181.89;107296;1259;99210;-66
2024/01/15 03:15:38;;;;;;;59.00;27.30;;;;;;;-9.25;68.07;100177.41;107309;1257;99091;-66
2024/01/15 03:18:06;;;;;;;60.40;27.40;;;;;;;-9.30;67.65;100177.31;107284;1257;113146;-65
2024/01/15 03:20:34;;;;;;;55.50;28.60;;;;;;;-9.35;67.39;100174.25;107294;1257;107602;-66
2024/01/15 03:23:03;;;;;;;60.50;27.40;;;;;;;-9.36;67.67;100175.33;107276;1257;108181;-65
2024/01/15 03:25:32;;;;;;;62.80;28.00;;;;;;;-9.33;68.07;100179.61;107102;1255;99324;-65
2024/01/15 03:28:00;;;;;;;65.80;29.80;;;;;;;-9.30;68.00;100182.69;107302;1257;99775;-66
2024/01/15 03:30:28;;;;;;;58.60;29.00;;;;;;;-9.26;68.15;100182.45;107235;1256;112561;-65
2024/01/15 03:32:57;;;;;;;69.80;31.80;;;;;;;-9.20;68.53;100180.79;107206;1257;108396;-67
2024/01/15 03:35:29;;;;;;;63.40;29.40;;;;;;;-9.12;68.85;100177.70;107181;1255;106746;-66
2024/01/15 03:37:57;;;;;;;61.00;28.70;;;;;;;-9.04;68.64;100177.40;107289;1256;99827;-66
2024/01/15 03:40:25;;;;;;;67.00;30.60;;;;;;;-9.04;68.61;100185.89;107224;1255;99202;-66
2024/01/15 03:42:54;;;;;;;62.40;28.50;;;;;;;-9.05;68.50;100188.52;107263;1257;112616;-66
2024/01/15 03:45:22;;;;;;;61.00;28.90;;;;;;;-9.01;68.84;100191.95;107257;1256;108373;-64
2024/01/15 03:47:51;;;;;;;61.30;29.30;;;;;;;-8.98;68.90;100195.02;107168;1256;108945;-66
2024/01/15 03:50:20;;;;;;;63.90;28.80;;;;;;;-8.97;68.62;100198.83;107146;1257;99268;-66
2024/01/15 03:52:48;;;;;;;62.30;29.20;;;;;;;-8.98;68.56;100197.43;107276;1256;99164;-67
2024/01/15 03:55:16;;;;;;;60.60;27.50;;;;;;;-9.02;67.73;100197.69;107293;1256;113837;-66
2024/01/15 03:57:45;;;;;;;64.30;29.40;;;;;;;-9.14;67.78;100194.59;107197;1256;108328;-65
2024/01/15 04:00:17;;;;;;;61.50;28.90;;;;;;;-9.20;67.62;100189.83;107175;1256;108606;-66
2024/01/15 04:02:45;;;;;;;64.30;28.50;;;;;;;-9.22;68.07;100190.20;107307;1256;99265;-66
2024/01/15 04:05:13;;;;;;;61.10;29.60;;;;;;;-9.24;67.93;100188.67;107295;1256;99125;-66
2024/01/15 04:07:42;;;;;;;60.30;27.50;;;;;;;-9.25;67.78;100182.45;107316;1257;113055;-65
2024/01/15 04:10:11;;;;;;;71.30;29.90;;;;;;;-9.24;68.00;100179.48;107291;1255;107898;-66
2024/01/15 04:12:39;;;;;;;66.60;30.40;;;;;;;-9.24;68.06;100172.35;107307;1257;108225;-66
2024/01/15 04:15:08;;;;;;;67.60;31.20;;;;;;;-9.26;68.21;100177.41;107300;1257;99192;-65
2024/01/15 04:17:36;;;;;;;69.10;30.40;;;;;;;-9.26;68.28;100176.55;107356;1256;99739;-67
2024/01/15 04:20:06;;;;;;;60.00;28.30;;;;;;;-9.26;68.20;100181.40;107349;1259;112499;-65
2024/01/15 04:22:35;;;;;;;69.00;29.60;;;;;;;-9.26;68.07;100182.11;107213;1256;106741;-65
2024/01/15 04:25:05;;;;;;;55.00;25.90;;;;;;;-9.25;68.06;100176.36;107236;1260;107077;-66
2024/01/15 04:27:33;;;;;;;65.00;26.10;;;;;;;-9.29;68.03;100180.08;107361;1256;99245;-65
2024/01/15 04:30:01;;;;;;;55.70;26.90;;;;;;;-9.35;67.60;100176.17;107341;1255;99076;-65
2024/01/15 04:32:30;;;;;;;60.20;25.90;;;;;;;-9.44;67.31;100176.33;107338;1259;113131;-64
2024/01/15 04:34:58;;;;;;;54.80;26.80;;;;;;;-9.51;67.47;100176.27;107318;1256;107747;-65
2024/01/15 04:37:27;;;;;;;65.20;29.40;;;;;;;-9.50;67.60;100175.20;107334;1256;108113;-65
2024/01/15 04:39:57;;;;;;;65.70;30.90;;;;;;;-9.51;67.60;100169.31;107127;1257;99176;-66
2024/01/15 04:42:26;;;;;;;57.10;27.10;;;;;;;-9.51;67.84;100166.89;107361;1256;99719;-65
2024/01/15 04:44:54;;;;;;;60.10;27.60;;;;;;;-9.52;67.72;100167.77;107328;1259;112650;-65
2024/01/15 04:47:22;;;;;;;58.20;26.20;;;;;;;-9.54;67.76;100173.86;107195;1257;108099;-66
2024/01/15 04:49:51;;;;;;;59.90;28.50;;;;;;;-9.53;67.98;100171.26;107184;1256;107931;-65
2024/01/15 04:52:19;;;;;;;69.00;30.80;;;;;;;-9.50;68.21;100175.36;107047;1256;99093;-65
2024/01/15 04:54:47;;;;;;;64.50;28.50;;;;;;;-9.49;67.96;100171.18;107205;1256;99681;-66
2024/01/15 04:57:16;;;;;;;58.10;28.70;;;;;;;-9.53;67.85;100172.12;107119;1257;113308;-64
2024/01/15 04:59:45;;;;;;;70.50;31.00;;;;;;;-9.53;68.10;100170.05;107329;1257;107976;-64
2024/01/15 05:02:13;;;;;;;66.90;30.70;;;;;;;-9.50;68.07;100164.27;107241;1259;108746;-66
2024/01/15 05:04:41;;;;;;;68.20;28.00;;;;;;;-9.45;68.35;100157.92;107270;1257;99308;-66
2024/01/15 05:07:10;;;;;;;66.20;29.30;;;;;;;-9.42;68.36;100161.35;107249;1255;100994;-67
2024/01/15 05:09:38;;;;;;;74.90;32.40;;;;;;;-9.41;68.40;100160.29;107260;1257;112847;-67
2024/01/15 05:12:07;;;;;;;83.70;34.90;;;;;;;-9.38;68.54;100162.34;107232;1255;107661;-66
2024/01/15 05:14:35;;;;;;;71.30;33.20;;;;;;;-9.37;68.26;100169.78;107280;1257;108206;-66
2024/01/15 05:17:03;;;;;;;75.70;32.30;;;;;;;-9.36;68.30;100170.97;107109;1256;99214;-66
2024/01/15 05:19:35;;;;;;;76.90;34.00;;;;;;;-9.32;68.48;100167.62;107298;1256;99191;-66
2024/01/15 05:22:04;;;;;;;75.40;31.20;;;;;;;-9.29;68.54;100167.05;107278;1257;112858;-65
2024/01/15 05:24:33;;;;;;;67.90;32.00;;;;;;;-9.30;68.25;100168.80;107257;1256;107967;-65
2024/01/15 05:27:01;;;;;;;62.30;28.60;;;;;;;-9.34;68.02;100173.20;107262;1256;109372;-66
2024/01/15 05:29:29;;;;;;;67.00;29.50;;;;;;;-9.37;67.96;100170.65;107277;1257;99272;-67
2024/01/15 05:31:58;;;;;;;63.10;27.70;;;;;;;-9.39;67.74;100163.40;107269;1257;99167;-66
2024/01/15 05:34:30;;;;;;;63.00;27.40;;;;;;;-9.43;67.85;100161.20;107338;1257;113489;-66
2024/01/15 05:36:59;;;;;;;61.40;27.10;;;;;;;-9.47;67.76;100159.86;107277;1255;108660;-66
2024/01/15 05:39:27;;;;;;;66.70;28.70;;;;;;;-9.49;67.95;100157.13;107220;1257;108198;-66
2024/01/15 05:41:55;;;;;;;93.40;59.70;;;;;;;-9.52;67.66;100161.01;107255;1256;99088;-67
2024/01/15 05:44:24;;;;;;;64.80;27.60;;;;;;;-9.59;67.72;100160.92;107240;1256;99753;-67
2024/01/15 05:46:53;;;;;;;60.00;27.70;;;;;;;-9.66;67.68;100154.11;107265;1257;112880;-67
2024/01/15 05:49:21;;;;;;;58.40;25.40;;;;;;;-9.76;67.28;100153.02;107266;1257;107763;-66
2024/01/15 05:51:51;;;;;;;59.30;26.60;;;;;;;-9.83;67.40;100144.63;107286;1257;107949;-66
2024/01/15 05:54:20;;;;;;;64.50;29.20;;;;;;;-9.86;67.41;100144.52;107267;1259;100511;-67
2024/01/15 05:56:48;;;;;;;73.70;33.40;;;;;;;-9.87;67.55;100147.11;107290;1257;99839;-68
2024/01/15 05:59:16;;;;;;;72.40;32.40;;;;;;;-9.87;67.56;100133.24;107287;1257;112457;-66
2024/01/15 06:01:45;;;;;;;76.30;35.10;;;;;;;-9.84;67.81;100130.61;107228;1257;108330;-67
2024/01/15 06:04:13;;;;;;;78.80;32.10;;;;;;;-9.79;67.87;100128.78;107203;1256;108589;-68
2024/01/15 06:06:42;;;;;;;73.40;32.60;;;;;;;-9.79;68.02;100124.09;107198;1256;99291;-66
2024/01/15 06:09:10;;;;;;;67.20;29.60;;;;;;;-9.80;67.54;100121.84;107158;1256;99214;-66
2024/01/15 06:11:39;;;;;;;62.40;28.00;;;;;;;-9.76;67.96;100124.92;107246;1257;112188;-66
2024/01/15 06:14:07;;;;;;;60.10;27.30;;;;;;;-9.73;67.97;100120.02;107257;1257;108397;-65
2024/01/15 06:16:35;;;;;;;61.40;28.20;;;;;;;-9.76;67.53;100122.66;107266;1257;107162;-65
2024/01/15 06:19:04;;;;;;;62.40;27.50;;;;;;;-9.81;67.45;100119.10;107236;1256;99254;-65
2024/01/15 06:21:32;;;;;;;67.60;27.60;;;;;;;-9.80;67.61;100119.42;107232;1257;99054;-66
2024/01/15 06:24:01;;;;;;;58.50;28.30;;;;;;;-9.76;67.57;100120.92;107240;1257;113356;-65
2024/01/15 06:26:29;;;;;;;59.40;27.10;;;;;;;-9.80;67.16;100126.02;107296;1256;107756;-66
2024/01/15 06:28:58;;;;;;;57.20;27.60;;;;;;;-9.79;67.54;100129.65;107282;1257;108425;-66
2024/01/15 06:31:26;;;;;;;70.80;33.70;;;;;;;-9.76;67.47;100125.25;107181;1256;99083;-67
2024/01/15 06:33:55;;;;;;;70.80;29.70;;;;;;;-9.72;67.74;100120.34;107198;1256;99189;-67
2024/01/15 06:36:24;;;;;;;73.40;32.60;;;;;;;-9.61;68.10;100120.16;107284;1256;112362;-66
2024/01/15 06:38:52;;;;;;;61.60;29.90;;;;;;;-9.44;68.47;100108.08;107188;1256;107592;-68
2024/01/15 06:41:20;;;;;;;71.00;32.40;;;;;;;-9.26;68.83;100107.59;107246;1256;107886;-66
2024/01/15 06:43:49;;;;;;;56.90;28.90;;;;;;;-9.06;69.07;100108.63;107263;1256;99269;-66
2024/01/15 06:46:21;;;;;;;97.20;37.10;;;;;;;-8.88;69.14;100109.34;107219;1257;99189;-66
2024/01/15 06:48:50;;;;;;;87.50;37.50;;;;;;;-8.69;68.92;100105.15;107217;1256;112401;-67
2024/01/15 06:51:18;;;;;;;71.80;30.90;;;;;;;-8.52;68.93;100104.61;106943;1257;106860;-68
2024/01/15 06:53:47;;;;;;;67.40;30.40;;;;;;;-8.31;69.16;100094.58;107281;1256;108594;-66
2024/01/15 06:56:18;;;;;;;59.30;27.20;;;;;;;-8.15;68.92;100095.27;107204;1257;99195;-66
2024/01/15 06:58:47;;;;;;;55.30;25.20;;;;;;;-8.01;68.97;100086.25;107221;1256;98324;-68
2024/01/15 07:01:15;;;;;;;56.10;25.00;;;;;;;-7.85;68.98;100080.81;107215;1257;112918;-66
2024/01/15 07:03:44;;;;;;;55.20;25.80;;;;;;;-7.71;68.97;100079.09;107261;1257;107912;-66
2024/01/15 07:06:12;;;;;;;55.30;26.90;;;;;;;-7.57;69.01;100079.27;107264;1257;108153;-67
2024/01/15 07:08:42;;;;;;;58.00;27.20;;;;;;;-7.43;68.82;100071.77;107146;1256;99243;-65
2024/01/15 07:11:10;;;;;;;56.90;25.00;;;;;;;-7.35;68.51;100073.84;107193;1256;99817;-66
2024/01/15 07:13:39;;;;;;;52.60;26.10;;;;;;;-7.27;68.33;100074.16;107221;1256;113053;-67
2024/01/15 07:16:08;;;;;;;53.50;25.30;;;;;;;-7.22;68.36;100072.13;107216;1257;106365;-67
2024/01/15 07:18:36;;;;;;;61.60;29.10;;;;;;;-7.19;68.24;100077.43;107231;1257;107986;-65
2024/01/15 07:21:05;;;;;;;69.70;28.60;;;;;;;-7.15;68.09;100078.22;107240;1257;99212;-67
2024/01/15 07:23:33;;;;;;;60.70;27.40;;;;;;;-7.10;68.33;100076.16;107267;1255;100342;-67
2024/01/15 07:26:02;;;;;;;50.60;24.20;;;;;;;-7.01;68.50;100072.61;107281;1257;113207;-67
2024/01/15 07:28:30;;;;;;;49.60;23.80;;;;;;;-6.98;68.41;100063.61;107243;1255;108352;-66
2024/01/15 07:31:01;;;;;;;57.60;24.90;;;;;;;-6.95;68.36;100068.61;107239;1257;107798;-68
2024/01/15 07:33:30;;;;;;;50.00;23.80;;;;;;;-6.87;68.72;100075.36;107275;1256;99475;-66
2024/01/15 07:35:58;;;;;;;58.10;24.80;;;;;;;-6.83;68.48;100081.52;107243;1255;99330;-66
2024/01/15 07:38:30;;;;;;;56.40;26.40;;;;;;;-6.73;68.90;100084.91;107174;1256;113072;-66
2024/01/15 07:40:59;;;;;;;57.40;27.80;;;;;;;-6.57;69.23;100080.63;107218;1256;108066;-65
2024/01/15 07:43:28;;;;;;;58.00;26.70;;;;;;;-6.39;69.05;100070.32;107231;1259;107441;-69
2024/01/15 07:45:57;;;;;;;49.80;23.00;;;;;;;-6.25;69.02;100068.17;107192;1256;99188;-66
2024/01/15 07:48:26;;;;;;;54.50;25.20;;;;;;;-6.15;68.76;100061.74;107296;1257;99220;-66
2024/01/15 07:50:54;;;;;;;55.60;24.80;;;;;;;-6.06;68.75;100055.69;107263;1256;113050;-67
2024/01/15 07:53:23;;;;;;;54.60;23.70;;;;;;;-5.91;68.95;100045.61;107252;1257;107641;-66
2024/01/15 07:55:51;;;;;;;55.00;24.50;;;;;;;-5.78;69.10;100036.27;107118;1256;108532;-67
2024/01/15 07:58:19;;;;;;;48.80;22.40;;;;;;;-5.66;68.81;100036.23;107239;1255;99279;-65
2024/01/15 08:00:47;;;;;;;56.70;24.70;;;;;;;-5.66;68.40;100033.59;107303;1256;99071;-67
2024/01/15 08:03:16;;;;;;;51.10;24.10;;;;;;;-5.56;69.06;100036.58;107254;1257;112851;-65
2024/01/15 08:05:44;;;;;;;44.80;22.80;;;;;;;-5.41;69.21;100038.71;107290;1257;106685;-65
2024/01/15 08:08:12;;;;;;;48.30;22.00;;;;;;;-5.26;69.20;100032.44;107221;1259;107474;-66
2024/01/15 08:10:41;;;;;;;53.10;23.20;;;;;;;-5.21;68.64;100027.35;107251;1256;99228;-66
2024/01/15 08:13:09;;;;;;;46.10;23.10;;;;;;;-5.16;68.58;100015.45;107236;1259;99196;-65
2024/01/15 08:15:37;;;;;;;57.20;26.30;;;;;;;-5.05;68.74;100007.52;107266;1256;112591;-65
2024/01/15 08:18:06;;;;;;;50.20;23.50;;;;;;;-4.93;68.75;100006.95;107215;1259;108232;-66
2024/01/15 08:20:35;;;;;;;53.70;24.20;;;;;;;-4.75;69.04;100010.46;107262;1257;107356;-66
2024/01/15 08:23:04;;;;;;;62.70;29.70;;;;;;;-4.57;68.87;100008.73;107209;1257;99197;-66
2024/01/15 08:25:32;;;;;;;68.00;29.50;;;;;;;-4.38;68.94;99997.69;107314;1255;99897;-65
2024/01/15 08:28:01;;;;;;;68.40;29.70;;;;;;;-4.24;68.76;100004.31;107254;1257;113591;-65
2024/01/15 08:30:29;;;;;;;63.20;30.60;;;;;;;-4.12;68.15;100011.73;107127;1257;108671;-67
2024/01/15 08:32:59;;;;;;;73.70;31.80;;;;;;;-4.00;68.08;100014.05;107108;1261;108487;-66
2024/01/15 08:35:36;;;;;;;73.80;32.20;;;;;;;-3.85;68.24;100007.16;107286;1257;99299;-67
2024/01/15 08:38:04;;;;;;;63.40;31.30;;;;;;;-3.74;67.90;100001.27;107243;1257;99079;-66
2024/01/15 08:40:33;;;;;;;69.70;32.70;;;;;;;-3.63;67.30;99987.83;107258;1259;113167;-66
2024/01/15 08:43:01;;;;;;;66.40;32.40;;;;;;;-3.53;67.30;99982.50;107199;1256;107001;-66
2024/01/15 08:45:30;;;;;;;66.90;31.80;;;;;;;-3.34;67.51;99979.92;106826;1256;526785;-67
2024/01/15 08:48:00;;;;;;;73.60;33.00;;;;;;;-3.10;67.24;99976.09;107221;1256;99201;-66
2024/01/15 08:50:30;;;;;;;76.00;35.60;;;;;;;-2.84;67.24;99967.20;107268;1257;99070;-67
2024/01/15 08:52:58;;;;;;;61.10;30.80;;;;;;;-2.52;66.63;99957.96;107264;1257;111796;-67
2024/01/15 08:55:27;;;;;;;60.00;26.70;;;;;;;-2.28;65.69;99956.34;107297;1257;107707;-67
2024/01/15 08:57:55;;;;;;;56.50;26.30;;;;;;;-2.14;64.62;99953.56;107223;1256;106593;-66
2024/01/15 09:00:23;;;;;;;48.80;24.10;;;;;;;-1.92;65.06;99939.09;107160;1260;99315;-66
2024/01/15 09:02:52;;;;;;;40.70;20.90;;;;;;;-1.72;64.29;99934.75;107062;1257;99678;-66
2024/01/15 09:05:20;;;;;;;48.00;24.00;;;;;;;-1.47;64.19;99933.14;107257;1256;111669;-66
2024/01/15 09:07:51;;;;;;;45.80;23.60;;;;;;;-1.30;62.92;99924.15;107270;1257;107525;-66
2024/01/15 09:10:20;;;;;;;47.40;22.60;;;;;;;-1.24;62.75;99918.38;107262;1257;108510;-64
2024/01/15 09:12:51;;;;;;;48.30;23.00;;;;;;;-1.11;63.03;99912.95;107250;1257;99202;-66
2024/01/15 09:15:20;;;;;;;43.70;22.30;;;;;;;-1.03;63.23;99907.39;107236;1257;99083;-66
2024/01/15 09:17:48;;;;;;;45.70;22.80;;;;;;;-0.96;63.50;99899.14;107288;1257;113448;-65
2024/01/15 09:20:18;;;;;;;42.40;22.40;;;;;;;-0.90;63.30;99894.05;107268;1258;108538;-65
2024/01/15 09:22:46;;;;;;;49.10;23.30;;;;;;;-0.80;63.46;99893.17;107269;1259;106977;-67
2024/01/15 09:25:15;;;;;;;46.10;24.10;;;;;;;-0.70;63.27;99889.07;107254;1257;99185;-67
2024/01/15 09:27:43;;;;;;;40.10;20.40;;;;;;;-0.68;63.19;99890.52;107338;1257;99072;-67
2024/01/15 09:30:12;;;;;;;37.50;20.20;;;;;;;-0.66;62.49;99880.40;107152;1256;113282;-67
2024/01/15 09:32:40;;;;;;;37.10;19.80;;;;;;;-0.67;61.54;99875.48;107307;1257;106981;-66
2024/01/15 09:35:09;;;;;;;36.50;19.70;;;;;;;-0.72;61.31;99868.95;107259;1256;107781;-66
2024/01/15 09:37:40;;;;;;;36.60;19.80;;;;;;;-0.81;60.80;99872.77;107256;1259;99194;-65
2024/01/15 09:40:15;;;;;;;38.20;20.30;;;;;;;-0.93;60.79;99866.77;107321;1255;99208;-66
2024/01/15 09:42:46;;;;;;;38.20;20.00;;;;;;;-0.96;61.52;99859.51;107248;1256;112859;-65
2024/01/15 09:45:15;;;;;;;42.50;21.40;;;;;;;-0.99;61.76;99864.58;107266;1256;107693;-66
2024/01/15 09:47:44;;;;;;;35.20;20.20;;;;;;;-0.99;62.20;99861.45;107298;1257;106844;-64
2024/01/15 09:50:16;;;;;;;41.60;21.50;;;;;;;-1.03;61.51;99851.27;107131;1257;99157;-66
2024/01/15 09:52:46;;;;;;;38.20;22.20;;;;;;;-1.14;61.81;99843.80;107267;1255;99158;-65
2024/01/15 09:55:16;;;;;;;42.50;22.00;;;;;;;-1.17;62.38;99840.08;107263;1257;112081;-66
2024/01/15 09:57:46;;;;;;;41.00;21.90;;;;;;;-1.26;62.37;99835.95;107268;1256;107506;-65
2024/01/15 10:00:18;;;;;;;43.40;22.00;;;;;;;-1.30;62.67;99830.73;107238;1256;107691;-65
2024/01/15 10:02:47;;;;;;;44.80;23.10;;;;;;;-1.36;62.48;99824.40;107236;1256;99198;-65
2024/01/15 10:05:16;;;;;;;46.50;24.10;;;;;;;-1.41;62.97;99815.86;107317;1257;99180;-65
2024/01/15 10:07:48;;;;;;;36.30;19.00;;;;;;;-1.46;63.31;99816.30;107108;1257;113571;-65
2024/01/15 10:10:16;;;;;;;37.90;21.50;;;;;;;-1.49;63.05;99808.55;107279;1259;106809;-66
2024/01/15 10:12:45;;;;;;;46.40;23.80;;;;;;;-1.56;63.00;99802.26;107229;1259;108311;-66
2024/01/15 10:15:13;;;;;;;51.80;24.50;;;;;;;-1.61;63.60;99796.52;107223;1256;99185;-66
2024/01/15 10:17:42;;;;;;;49.20;24.70;;;;;;;-1.60;63.59;99789.23;107236;1257;99707;-65
2024/01/15 10:20:12;;;;;;;52.70;25.10;;;;;;;-1.61;63.58;99792.47;107280;1257;112783;-66
2024/01/15 10:22:48;;;;;;;49.30;23.90;;;;;;;-1.60;64.14;99787.69;107308;1256;108322;-67
2024/01/15 10:25:22;;;;;;;45.70;22.50;;;;;;;-1.59;63.87;99786.89;107268;1257;108476;-69
2024/01/15 10:28:03;;;;;;;53.80;27.20;;;;;;;-1.57;64.09;99781.51;107266;1257;99180;-66
2024/01/15 10:30:34;;;;;;;53.20;27.60;;;;;;;-1.53;64.21;99780.83;107270;1257;99759;-66
2024/01/15 10:33:04;;;;;;;47.80;23.60;;;;;;;-1.50;64.31;99778.01;107244;1257;112088;-66
2024/01/15 10:35:34;;;;;;;44.60;24.40;;;;;;;-1.48;64.37;99771.92;107302;1257;107278;-65
2024/01/15 10:38:04;;;;;;;42.30;21.20;;;;;;;-1.45;64.50;99770.67;107143;1257;107357;-65
2024/01/15 10:40:32;;;;;;;41.60;20.10;;;;;;;-1.41;64.47;99763.64;107232;1259;99078;-65
2024/01/15 10:43:01;;;;;;;40.90;21.20;;;;;;;-1.37;64.45;99760.27;107167;1257;99195;-67
2024/01/15 10:45:29;;;;;;;39.70;20.20;;;;;;;-1.36;64.56;99755.63;107300;1257;111672;-67
2024/01/15 10:47:58;;;;;;;41.40;21.80;;;;;;;-1.33;64.57;99749.30;107264;1259;108594;-64
2024/01/15 10:50:29;;;;;;;37.90;20.30;;;;;;;-1.31;64.75;99750.59;107316;1259;107626;-65
2024/01/15 10:52:58;;;;;;;39.00;20.40;;;;;;;-1.27;64.73;99747.87;107232;1256;99194;-65
2024/01/15 10:55:27;;;;;;;41.50;20.50;;;;;;;-1.22;64.87;99740.44;107312;1256;99156;-64
2024/01/15 10:57:57;;;;;;;39.80;19.90;;;;;;;-1.18;64.87;99740.35;107256;1260;113617;-66
2024/01/15 11:00:27;;;;;;;38.10;18.40;;;;;;;-1.14;64.75;99732.58;107274;1256;108391;-65
2024/01/15 11:02:57;;;;;;;38.30;19.80;;;;;;;-1.08;64.96;99725.89;107217;1260;108644;-65
2024/01/15 11:05:25;;;;;;;35.20;18.00;;;;;;;-1.02;65.14;99717.98;107286;1260;99783;-66
2024/01/15 11:07:59;;;;;;;33.90;19.10;;;;;;;-0.98;64.87;99713.34;107311;1257;99348;-65